sensor_id;sensor_type;location;lat;lon;timestamp;temperature;humidity
53310;DHT22;39197;53.200;5.792;2022-08-21T00:01:27;16.30;99.90
53310;DHT22;39197;53.200;5.792;2022-08-21T00:03:54;16.30;99.90
53310;DHT22;39197;53.200;5.792;2022-08-21T00:06:20;16.30;99.90
53310;DHT22;39197;53.200;5.792;2022-08-21T00:08:46;16.30;99.90
53310;DHT22;39197;53.200;5.792;2022-08-21T00:11:13;16.20;99.90
53310;DHT22;39197;53.200;5.792;2022-08-21T00:13:40;16.20;99.90
53310;DHT22;39197;53.200;5.792;2022-08-21T00:16:05;16.20;99.90
53310;DHT22;39197;53.200;5.792;2022-08-21T00:18:31;16.20;99.90
53310;DHT22;39197;53.200;5.792;2022-08-21T00:20:57;16.10;99.90
53310;DHT22;39197;53.200;5.792;2022-08-21T00:23:24;16.10;99.90
53310;DHT22;39197;53.200;5.792;2022-08-21T00:25:49;16.20;99.90
53310;DHT22;39197;53.200;5.792;2022-08-21T00:28:15;16.20;99.90
53310;DHT22;39197;53.200;5.792;2022-08-21T00:30:42;16.20;99.90
53310;DHT22;39197;53.200;5.792;2022-08-21T00:33:09;16.10;99.90
53310;DHT22;39197;53.200;5.792;2022-08-21T00:35:37;16.10;99.90
53310;DHT22;39197;53.200;5.792;2022-08-21T00:38:05;16.10;99.90
53310;DHT22;39197;53.200;5.792;2022-08-21T00:40:58;16.10;99.90
53310;DHT22;39197;53.200;5.792;2022-08-21T00:43:29;16.00;99.90
53310;DHT22;39197;53.200;5.792;2022-08-21T00:45:55;15.90;99.90
53310;DHT22;39197;53.200;5.792;2022-08-21T00:48:22;15.90;99.90
53310;DHT22;39197;53.200;5.792;2022-08-21T00:53:30;16.00;99.90
53310;DHT22;39197;53.200;5.792;2022-08-21T00:55:56;16.00;99.90
53310;DHT22;39197;53.200;5.792;2022-08-21T00:58:23;16.00;99.90
53310;DHT22;39197;53.200;5.792;2022-08-21T01:00:49;16.00;99.90
53310;DHT22;39197;53.200;5.792;2022-08-21T01:03:19;16.00;99.90
53310;DHT22;39197;53.200;5.792;2022-08-21T01:05:44;15.90;99.90
53310;DHT22;39197;53.200;5.792;2022-08-21T01:08:12;15.90;99.90
53310;DHT22;39197;53.200;5.792;2022-08-21T01:10:39;15.90;99.90
53310;DHT22;39197;53.200;5.792;2022-08-21T01:13:06;15.90;99.90
53310;DHT22;39197;53.200;5.792;2022-08-21T01:15:36;15.80;99.90
53310;DHT22;39197;53.200;5.792;2022-08-21T01:18:07;15.80;99.90
53310;DHT22;39197;53.200;5.792;2022-08-21T01:20:35;15.80;99.90
53310;DHT22;39197;53.200;5.792;2022-08-21T01:23:02;15.80;99.90
53310;DHT22;39197;53.200;5.792;2022-08-21T01:25:28;15.80;99.90
53310;DHT22;39197;53.200;5.792;2022-08-21T01:27:54;15.80;99.90
53310;DHT22;39197;53.200;5.792;2022-08-21T01:30:23;15.80;99.90
53310;DHT22;39197;53.200;5.792;2022-08-21T01:32:49;15.80;99.90
53310;DHT22;39197;53.200;5.792;2022-08-21T01:35:16;15.80;99.90
53310;DHT22;39197;53.200;5.792;2022-08-21T01:37:43;15.70;99.90
53310;DHT22;39197;53.200;5.792;2022-08-21T01:40:09;15.70;99.90
53310;DHT22;39197;53.200;5.792;2022-08-21T01:42:36;15.70;99.90
53310;DHT22;39197;53.200;5.792;2022-08-21T01:45:02;15.70;99.90
53310;DHT22;39197;53.200;5.792;2022-08-21T01:47:28;15.70;99.90
53310;DHT22;39197;53.200;5.792;2022-08-21T01:49:53;15.60;99.90
53310;DHT22;39197;53.200;5.792;2022-08-21T01:52:19;15.60;99.90
53310;DHT22;39197;53.200;5.792;2022-08-21T01:54:46;15.50;99.90
53310;DHT22;39197;53.200;5.792;2022-08-21T01:57:12;15.50;99.90
53310;DHT22;39197;53.200;5.792;2022-08-21T01:59:38;15.50;99.90
53310;DHT22;39197;53.200;5.792;2022-08-21T02:02:05;15.40;99.90
53310;DHT22;39197;53.200;5.792;2022-08-21T02:04:32;15.40;99.90
53310;DHT22;39197;53.200;5.792;2022-08-21T02:06:58;15.40;99.90
53310;DHT22;39197;53.200;5.792;2022-08-21T02:09:24;15.40;99.90
53310;DHT22;39197;53.200;5.792;2022-08-21T02:11:50;15.30;99.90
53310;DHT22;39197;53.200;5.792;2022-08-21T02:14:16;15.20;99.90
53310;DHT22;39197;53.200;5.792;2022-08-21T02:16:43;15.30;99.90
53310;DHT22;39197;53.200;5.792;2022-08-21T02:19:11;15.30;99.90
53310;DHT22;39197;53.200;5.792;2022-08-21T02:21:37;15.20;99.90
53310;DHT22;39197;53.200;5.792;2022-08-21T02:24:03;15.20;99.90
53310;DHT22;39197;53.200;5.792;2022-08-21T02:26:29;15.20;99.90
53310;DHT22;39197;53.200;5.792;2022-08-21T02:28:55;15.20;99.90
53310;DHT22;39197;53.200;5.792;2022-08-21T02:31:20;15.10;99.90
53310;DHT22;39197;53.200;5.792;2022-08-21T02:33:46;15.10;99.90
53310;DHT22;39197;53.200;5.792;2022-08-21T02:36:12;15.10;99.90
53310;DHT22;39197;53.200;5.792;2022-08-21T02:38:39;15.10;99.90
53310;DHT22;39197;53.200;5.792;2022-08-21T02:41:17;15.10;99.90
53310;DHT22;39197;53.200;5.792;2022-08-21T02:43:43;15.10;99.90
53310;DHT22;39197;53.200;5.792;2022-08-21T02:46:10;15.10;99.90
53310;DHT22;39197;53.200;5.792;2022-08-21T02:48:37;15.10;99.90
53310;DHT22;39197;53.200;5.792;2022-08-21T02:51:09;15.10;99.90
53310;DHT22;39197;53.200;5.792;2022-08-21T02:53:36;15.10;99.90
53310;DHT22;39197;53.200;5.792;2022-08-21T02:56:04;15.10;99.90
53310;DHT22;39197;53.200;5.792;2022-08-21T02:58:33;15.10;99.90
53310;DHT22;39197;53.200;5.792;2022-08-21T03:00:59;15.20;99.90
53310;DHT22;39197;53.200;5.792;2022-08-21T03:03:27;15.20;99.90
53310;DHT22;39197;53.200;5.792;2022-08-21T03:05:55;15.20;99.90
53310;DHT22;39197;53.200;5.792;2022-08-21T03:08:21;15.20;99.90
53310;DHT22;39197;53.200;5.792;2022-08-21T03:10:49;15.10;99.90
53310;DHT22;39197;53.200;5.792;2022-08-21T03:13:16;15.10;99.90
53310;DHT22;39197;53.200;5.792;2022-08-21T03:15:43;15.20;99.90
53310;DHT22;39197;53.200;5.792;2022-08-21T03:18:10;15.10;99.90
53310;DHT22;39197;53.200;5.792;2022-08-21T03:20:37;15.20;99.90
53310;DHT22;39197;53.200;5.792;2022-08-21T03:23:04;15.20;99.90
53310;DHT22;39197;53.200;5.792;2022-08-21T03:25:30;15.20;99.90
53310;DHT22;39197;53.200;5.792;2022-08-21T03:27:58;15.20;99.90
53310;DHT22;39197;53.200;5.792;2022-08-21T03:30:23;15.10;99.90
53310;DHT22;39197;53.200;5.792;2022-08-21T03:32:50;15.10;99.90
53310;DHT22;39197;53.200;5.792;2022-08-21T03:35:17;15.10;99.90
53310;DHT22;39197;53.200;5.792;2022-08-21T03:37:43;15.10;99.90
53310;DHT22;39197;53.200;5.792;2022-08-21T03:40:09;15.00;99.90
53310;DHT22;39197;53.200;5.792;2022-08-21T03:42:35;15.00;99.90
53310;DHT22;39197;53.200;5.792;2022-08-21T03:45:02;15.00;99.90
53310;DHT22;39197;53.200;5.792;2022-08-21T03:47:28;15.10;99.90
53310;DHT22;39197;53.200;5.792;2022-08-21T03:49:53;15.00;99.90
53310;DHT22;39197;53.200;5.792;2022-08-21T03:52:20;15.00;99.90
53310;DHT22;39197;53.200;5.792;2022-08-21T03:54:45;15.00;99.90
53310;DHT22;39197;53.200;5.792;2022-08-21T03:57:12;15.00;99.90
53310;DHT22;39197;53.200;5.792;2022-08-21T03:59:38;15.00;99.90
53310;DHT22;39197;53.200;5.792;2022-08-21T04:02:05;15.00;99.90
53310;DHT22;39197;53.200;5.792;2022-08-21T04:04:32;15.00;99.90
53310;DHT22;39197;53.200;5.792;2022-08-21T04:06:58;15.00;99.90
53310;DHT22;39197;53.200;5.792;2022-08-21T04:09:24;15.00;99.90
53310;DHT22;39197;53.200;5.792;2022-08-21T04:11:50;15.00;99.90
53310;DHT22;39197;53.200;5.792;2022-08-21T04:14:16;15.00;99.90
53310;DHT22;39197;53.200;5.792;2022-08-21T04:16:42;15.00;99.90
53310;DHT22;39197;53.200;5.792;2022-08-21T04:19:09;15.00;99.90
53310;DHT22;39197;53.200;5.792;2022-08-21T04:21:36;15.00;99.90
53310;DHT22;39197;53.200;5.792;2022-08-21T04:24:04;15.00;99.90
53310;DHT22;39197;53.200;5.792;2022-08-21T04:26:29;15.00;99.90
53310;DHT22;39197;53.200;5.792;2022-08-21T04:28:56;15.00;99.90
53310;DHT22;39197;53.200;5.792;2022-08-21T04:31:23;15.00;99.90
53310;DHT22;39197;53.200;5.792;2022-08-21T04:33:49;15.00;99.90
53310;DHT22;39197;53.200;5.792;2022-08-21T04:36:14;15.00;99.90
53310;DHT22;39197;53.200;5.792;2022-08-21T04:38:40;15.00;99.90
53310;DHT22;39197;53.200;5.792;2022-08-21T04:41:05;15.10;99.90
53310;DHT22;39197;53.200;5.792;2022-08-21T04:43:31;15.10;99.90
53310;DHT22;39197;53.200;5.792;2022-08-21T04:45:57;15.10;99.90
53310;DHT22;39197;53.200;5.792;2022-08-21T04:48:23;15.10;99.90
53310;DHT22;39197;53.200;5.792;2022-08-21T04:51:05;15.10;99.90
53310;DHT22;39197;53.200;5.792;2022-08-21T04:53:40;15.10;99.90
53310;DHT22;39197;53.200;5.792;2022-08-21T04:56:37;15.10;99.90
53310;DHT22;39197;53.200;5.792;2022-08-21T04:59:10;15.10;99.90
53310;DHT22;39197;53.200;5.792;2022-08-21T05:01:37;15.10;99.90
53310;DHT22;39197;53.200;5.792;2022-08-21T05:04:04;15.10;99.90
53310;DHT22;39197;53.200;5.792;2022-08-21T05:06:34;15.10;99.90
53310;DHT22;39197;53.200;5.792;2022-08-21T05:09:00;15.10;99.90
53310;DHT22;39197;53.200;5.792;2022-08-21T05:11:27;15.20;99.90
53310;DHT22;39197;53.200;5.792;2022-08-21T05:13:53;15.20;99.90
53310;DHT22;39197;53.200;5.792;2022-08-21T05:16:19;15.30;99.90
53310;DHT22;39197;53.200;5.792;2022-08-21T05:18:44;15.30;99.90
53310;DHT22;39197;53.200;5.792;2022-08-21T05:21:10;15.30;99.90
53310;DHT22;39197;53.200;5.792;2022-08-21T05:23:36;15.30;99.90
53310;DHT22;39197;53.200;5.792;2022-08-21T05:26:02;15.40;99.90
53310;DHT22;39197;53.200;5.792;2022-08-21T05:28:29;15.40;99.90
53310;DHT22;39197;53.200;5.792;2022-08-21T05:30:55;15.40;99.90
53310;DHT22;39197;53.200;5.792;2022-08-21T05:33:21;15.40;99.90
53310;DHT22;39197;53.200;5.792;2022-08-21T05:35:50;15.50;99.90
53310;DHT22;39197;53.200;5.792;2022-08-21T05:38:16;15.50;99.90
53310;DHT22;39197;53.200;5.792;2022-08-21T05:40:41;15.60;99.90
53310;DHT22;39197;53.200;5.792;2022-08-21T05:43:08;15.60;99.90
53310;DHT22;39197;53.200;5.792;2022-08-21T05:45:33;15.70;99.90
53310;DHT22;39197;53.200;5.792;2022-08-21T05:48:08;15.70;99.90
53310;DHT22;39197;53.200;5.792;2022-08-21T05:50:35;15.80;99.90
53310;DHT22;39197;53.200;5.792;2022-08-21T05:53:01;15.80;99.90
53310;DHT22;39197;53.200;5.792;2022-08-21T05:55:26;15.90;99.90
53310;DHT22;39197;53.200;5.792;2022-08-21T05:57:52;16.00;99.90
53310;DHT22;39197;53.200;5.792;2022-08-21T06:00:18;16.00;99.90
53310;DHT22;39197;53.200;5.792;2022-08-21T06:02:43;16.10;99.90
53310;DHT22;39197;53.200;5.792;2022-08-21T06:05:09;16.10;99.90
53310;DHT22;39197;53.200;5.792;2022-08-21T06:07:34;16.20;99.90
53310;DHT22;39197;53.200;5.792;2022-08-21T06:10:00;16.20;99.90
53310;DHT22;39197;53.200;5.792;2022-08-21T06:12:26;16.30;99.90
53310;DHT22;39197;53.200;5.792;2022-08-21T06:14:51;16.30;99.90
53310;DHT22;39197;53.200;5.792;2022-08-21T06:17:17;16.40;99.90
53310;DHT22;39197;53.200;5.792;2022-08-21T06:19:44;16.50;99.90
53310;DHT22;39197;53.200;5.792;2022-08-21T06:22:09;16.60;99.90
53310;DHT22;39197;53.200;5.792;2022-08-21T06:24:35;16.60;99.90
53310;DHT22;39197;53.200;5.792;2022-08-21T06:27:07;16.70;99.90
53310;DHT22;39197;53.200;5.792;2022-08-21T06:29:33;16.80;99.90
53310;DHT22;39197;53.200;5.792;2022-08-21T06:32:00;16.90;99.90
53310;DHT22;39197;53.200;5.792;2022-08-21T06:34:25;17.00;99.90
53310;DHT22;39197;53.200;5.792;2022-08-21T06:36:51;17.10;99.90
53310;DHT22;39197;53.200;5.792;2022-08-21T06:39:17;17.20;99.90
53310;DHT22;39197;53.200;5.792;2022-08-21T06:41:42;17.20;99.90
53310;DHT22;39197;53.200;5.792;2022-08-21T06:44:08;17.30;99.90
53310;DHT22;39197;53.200;5.792;2022-08-21T06:46:34;17.40;99.90
53310;DHT22;39197;53.200;5.792;2022-08-21T06:49:00;17.50;99.90
53310;DHT22;39197;53.200;5.792;2022-08-21T06:51:25;17.60;99.90
53310;DHT22;39197;53.200;5.792;2022-08-21T06:53:52;17.70;99.90
53310;DHT22;39197;53.200;5.792;2022-08-21T06:56:18;17.80;99.90
53310;DHT22;39197;53.200;5.792;2022-08-21T06:58:44;17.90;99.90
53310;DHT22;39197;53.200;5.792;2022-08-21T07:01:10;18.10;99.90
53310;DHT22;39197;53.200;5.792;2022-08-21T07:03:38;18.30;99.90
53310;DHT22;39197;53.200;5.792;2022-08-21T07:06:06;18.60;99.90
53310;DHT22;39197;53.200;5.792;2022-08-21T07:08:32;19.00;99.90
53310;DHT22;39197;53.200;5.792;2022-08-21T07:11:00;19.30;99.90
53310;DHT22;39197;53.200;5.792;2022-08-21T07:13:27;19.30;99.90
53310;DHT22;39197;53.200;5.792;2022-08-21T07:15:53;19.40;99.90
53310;DHT22;39197;53.200;5.792;2022-08-21T07:18:19;19.40;99.90
53310;DHT22;39197;53.200;5.792;2022-08-21T07:20:45;19.50;99.90
53310;DHT22;39197;53.200;5.792;2022-08-21T07:23:30;19.70;99.90
53310;DHT22;39197;53.200;5.792;2022-08-21T07:25:56;20.30;99.90
53310;DHT22;39197;53.200;5.792;2022-08-21T07:28:21;20.70;99.90
53310;DHT22;39197;53.200;5.792;2022-08-21T07:30:52;21.00;99.90
53310;DHT22;39197;53.200;5.792;2022-08-21T07:33:18;21.20;99.90
53310;DHT22;39197;53.200;5.792;2022-08-21T07:35:44;21.60;99.90
53310;DHT22;39197;53.200;5.792;2022-08-21T07:38:09;21.80;99.90
53310;DHT22;39197;53.200;5.792;2022-08-21T07:40:35;21.80;99.90
53310;DHT22;39197;53.200;5.792;2022-08-21T07:43:00;21.90;99.90
53310;DHT22;39197;53.200;5.792;2022-08-21T07:45:27;21.90;99.90
53310;DHT22;39197;53.200;5.792;2022-08-21T07:47:52;21.90;99.90
53310;DHT22;39197;53.200;5.792;2022-08-21T07:50:19;21.90;99.90
53310;DHT22;39197;53.200;5.792;2022-08-21T07:52:45;21.90;99.90
53310;DHT22;39197;53.200;5.792;2022-08-21T07:55:13;22.10;99.90
53310;DHT22;39197;53.200;5.792;2022-08-21T07:57:38;22.20;99.90
53310;DHT22;39197;53.200;5.792;2022-08-21T08:00:06;22.50;99.90
53310;DHT22;39197;53.200;5.792;2022-08-21T08:02:32;22.60;99.90
53310;DHT22;39197;53.200;5.792;2022-08-21T08:05:00;22.70;99.90
53310;DHT22;39197;53.200;5.792;2022-08-21T08:07:26;22.70;99.90
53310;DHT22;39197;53.200;5.792;2022-08-21T08:09:51;22.40;99.90
53310;DHT22;39197;53.200;5.792;2022-08-21T08:12:17;22.30;99.90
53310;DHT22;39197;53.200;5.792;2022-08-21T08:14:43;22.30;99.90
53310;DHT22;39197;53.200;5.792;2022-08-21T08:17:09;22.40;99.90
53310;DHT22;39197;53.200;5.792;2022-08-21T08:19:35;22.40;99.90
53310;DHT22;39197;53.200;5.792;2022-08-21T08:22:00;22.20;99.90
53310;DHT22;39197;53.200;5.792;2022-08-21T08:24:26;22.50;99.90
53310;DHT22;39197;53.200;5.792;2022-08-21T08:26:51;22.50;99.90
53310;DHT22;39197;53.200;5.792;2022-08-21T08:29:20;22.30;99.90
53310;DHT22;39197;53.200;5.792;2022-08-21T08:31:46;22.20;99.90
53310;DHT22;39197;53.200;5.792;2022-08-21T08:34:11;22.30;99.90
53310;DHT22;39197;53.200;5.792;2022-08-21T08:36:37;22.60;99.90
53310;DHT22;39197;53.200;5.792;2022-08-21T08:39:04;22.50;99.90
53310;DHT22;39197;53.200;5.792;2022-08-21T08:41:31;22.40;99.90
53310;DHT22;39197;53.200;5.792;2022-08-21T08:44:03;22.20;99.90
53310;DHT22;39197;53.200;5.792;2022-08-21T08:46:40;22.10;99.90
53310;DHT22;39197;53.200;5.792;2022-08-21T08:49:21;22.10;99.90
53310;DHT22;39197;53.200;5.792;2022-08-21T08:52:02;22.40;99.90
53310;DHT22;39197;53.200;5.792;2022-08-21T08:54:40;22.30;99.90
53310;DHT22;39197;53.200;5.792;2022-08-21T08:57:15;22.00;99.90
53310;DHT22;39197;53.200;5.792;2022-08-21T08:59:44;22.10;99.90
53310;DHT22;39197;53.200;5.792;2022-08-21T09:02:13;22.80;99.90
53310;DHT22;39197;53.200;5.792;2022-08-21T09:04:40;23.20;99.90
53310;DHT22;39197;53.200;5.792;2022-08-21T09:07:17;23.20;99.90
53310;DHT22;39197;53.200;5.792;2022-08-21T09:15:20;23.10;99.90
53310;DHT22;39197;53.200;5.792;2022-08-21T09:18:42;23.60;99.90
53310;DHT22;39197;53.200;5.792;2022-08-21T09:21:18;24.20;99.90
53310;DHT22;39197;53.200;5.792;2022-08-21T09:26:20;25.00;99.90
53310;DHT22;39197;53.200;5.792;2022-08-21T09:28:53;24.50;99.90
53310;DHT22;39197;53.200;5.792;2022-08-21T09:31:32;24.00;99.90
53310;DHT22;39197;53.200;5.792;2022-08-21T09:34:04;23.50;99.90
53310;DHT22;39197;53.200;5.792;2022-08-21T09:36:42;23.40;99.90
53310;DHT22;39197;53.200;5.792;2022-08-21T09:39:10;23.30;99.90
53310;DHT22;39197;53.200;5.792;2022-08-21T09:41:37;23.70;99.90
53310;DHT22;39197;53.200;5.792;2022-08-21T09:44:05;24.30;99.90
53310;DHT22;39197;53.200;5.792;2022-08-21T09:46:32;24.90;99.90
53310;DHT22;39197;53.200;5.792;2022-08-21T09:49:01;25.40;99.90
53310;DHT22;39197;53.200;5.792;2022-08-21T09:51:30;25.80;99.90
53310;DHT22;39197;53.200;5.792;2022-08-21T09:54:17;26.20;99.90
53310;DHT22;39197;53.200;5.792;2022-08-21T09:57:05;26.50;99.90
53310;DHT22;39197;53.200;5.792;2022-08-21T09:59:55;26.50;99.90
53310;DHT22;39197;53.200;5.792;2022-08-21T10:02:28;26.10;99.90
53310;DHT22;39197;53.200;5.792;2022-08-21T10:05:00;25.60;99.90
53310;DHT22;39197;53.200;5.792;2022-08-21T10:07:29;25.10;99.90
53310;DHT22;39197;53.200;5.792;2022-08-21T10:10:04;25.10;99.90
53310;DHT22;39197;53.200;5.792;2022-08-21T10:12:46;24.80;99.90
53310;DHT22;39197;53.200;5.792;2022-08-21T10:16:08;24.40;99.90
53310;DHT22;39197;53.200;5.792;2022-08-21T10:21:22;24.90;99.90
53310;DHT22;39197;53.200;5.792;2022-08-21T10:26:35;25.70;99.90
53310;DHT22;39197;53.200;5.792;2022-08-21T10:32:47;25.70;99.90
53310;DHT22;39197;53.200;5.792;2022-08-21T10:35:33;26.20;99.90
53310;DHT22;39197;53.200;5.792;2022-08-21T10:41:14;27.30;99.90
53310;DHT22;39197;53.200;5.792;2022-08-21T10:46:55;27.20;99.90
53310;DHT22;39197;53.200;5.792;2022-08-21T10:49:39;26.90;99.90
53310;DHT22;39197;53.200;5.792;2022-08-21T10:52:43;26.40;99.90
53310;DHT22;39197;53.200;5.792;2022-08-21T10:55:16;26.00;99.90
53310;DHT22;39197;53.200;5.792;2022-08-21T11:00:18;26.10;99.90
53310;DHT22;39197;53.200;5.792;2022-08-21T11:02:51;26.70;99.90
53310;DHT22;39197;53.200;5.792;2022-08-21T11:05:50;27.00;99.90
53310;DHT22;39197;53.200;5.792;2022-08-21T11:08:37;27.70;99.90
53310;DHT22;39197;53.200;5.792;2022-08-21T11:14:00;27.50;99.90
53310;DHT22;39197;53.200;5.792;2022-08-21T11:16:33;27.90;99.90
53310;DHT22;39197;53.200;5.792;2022-08-21T11:19:07;28.10;99.90
53310;DHT22;39197;53.200;5.792;2022-08-21T11:21:43;28.00;99.90
53310;DHT22;39197;53.200;5.792;2022-08-21T11:25:13;28.20;99.90
53310;DHT22;39197;53.200;5.792;2022-08-21T11:27:28;28.20;99.90
53310;DHT22;39197;53.200;5.792;2022-08-21T11:29:57;27.80;99.90
53310;DHT22;39197;53.200;5.792;2022-08-21T11:38:01;28.30;99.90
53310;DHT22;39197;53.200;5.792;2022-08-21T11:40:50;28.10;99.90
53310;DHT22;39197;53.200;5.792;2022-08-21T11:45:53;27.90;99.90
53310;DHT22;39197;53.200;5.792;2022-08-21T11:48:48;27.50;99.90
53310;DHT22;39197;53.200;5.792;2022-08-21T11:51:17;27.40;99.90
53310;DHT22;39197;53.200;5.792;2022-08-21T11:53:51;27.20;99.90
53310;DHT22;39197;53.200;5.792;2022-08-21T11:56:34;27.50;99.90
53310;DHT22;39197;53.200;5.792;2022-08-21T11:59:09;28.00;99.90
53310;DHT22;39197;53.200;5.792;2022-08-21T12:01:43;27.90;99.90
53310;DHT22;39197;53.200;5.792;2022-08-21T12:04:28;28.00;99.30
53310;DHT22;39197;53.200;5.792;2022-08-21T12:06:54;27.60;99.80
53310;DHT22;39197;53.200;5.792;2022-08-21T12:14:41;28.80;99.20
53310;DHT22;39197;53.200;5.792;2022-08-21T12:17:16;29.30;98.50
53310;DHT22;39197;53.200;5.792;2022-08-21T12:19:43;29.20;97.50
53310;DHT22;39197;53.200;5.792;2022-08-21T12:22:13;28.80;97.50
53310;DHT22;39197;53.200;5.792;2022-08-21T12:27:27;29.40;97.20
53310;DHT22;39197;53.200;5.792;2022-08-21T12:30:00;29.50;97.00
53310;DHT22;39197;53.200;5.792;2022-08-21T12:32:30;29.60;96.80
53310;DHT22;39197;53.200;5.792;2022-08-21T12:35:19;29.90;96.00
53310;DHT22;39197;53.200;5.792;2022-08-21T12:37:50;29.60;96.00
53310;DHT22;39197;53.200;5.792;2022-08-21T12:42:46;28.20;96.90
53310;DHT22;39197;53.200;5.792;2022-08-21T12:45:27;28.00;97.30
53310;DHT22;39197;53.200;5.792;2022-08-21T12:48:00;27.40;98.30
53310;DHT22;39197;53.200;5.792;2022-08-21T12:50:53;27.50;98.70
53310;DHT22;39197;53.200;5.792;2022-08-21T12:53:27;27.80;97.60
53310;DHT22;39197;53.200;5.792;2022-08-21T12:55:55;27.70;97.90
53310;DHT22;39197;53.200;5.792;2022-08-21T12:58:26;28.10;97.70
53310;DHT22;39197;53.200;5.792;2022-08-21T13:01:02;28.20;97.70
53310;DHT22;39197;53.200;5.792;2022-08-21T13:03:28;28.10;97.50
53310;DHT22;39197;53.200;5.792;2022-08-21T13:05:54;28.30;98.00
53310;DHT22;39197;53.200;5.792;2022-08-21T13:08:22;28.20;97.80
53310;DHT22;39197;53.200;5.792;2022-08-21T13:10:59;28.00;98.00
53310;DHT22;39197;53.200;5.792;2022-08-21T13:13:26;28.40;98.00
53310;DHT22;39197;53.200;5.792;2022-08-21T13:15:58;28.10;97.80
53310;DHT22;39197;53.200;5.792;2022-08-21T13:18:27;27.60;98.40
53310;DHT22;39197;53.200;5.792;2022-08-21T13:21:06;27.20;98.60
53310;DHT22;39197;53.200;5.792;2022-08-21T13:23:32;27.40;98.50
53310;DHT22;39197;53.200;5.792;2022-08-21T13:25:58;27.50;98.30
53310;DHT22;39197;53.200;5.792;2022-08-21T13:28:32;27.70;98.10
53310;DHT22;39197;53.200;5.792;2022-08-21T13:30:59;27.90;98.00
53310;DHT22;39197;53.200;5.792;2022-08-21T13:33:29;28.00;97.80
53310;DHT22;39197;53.200;5.792;2022-08-21T13:38:28;27.90;97.90
53310;DHT22;39197;53.200;5.792;2022-08-21T13:43:47;27.90;97.70
53310;DHT22;39197;53.200;5.792;2022-08-21T13:46:14;28.20;97.80
53310;DHT22;39197;53.200;5.792;2022-08-21T13:48:41;27.90;97.60
53310;DHT22;39197;53.200;5.792;2022-08-21T13:51:08;28.20;97.70
53310;DHT22;39197;53.200;5.792;2022-08-21T13:53:44;28.20;97.70
53310;DHT22;39197;53.200;5.792;2022-08-21T13:56:31;28.30;97.80
53310;DHT22;39197;53.200;5.792;2022-08-21T13:59:00;28.50;97.70
53310;DHT22;39197;53.200;5.792;2022-08-21T14:01:38;28.50;97.50
53310;DHT22;39197;53.200;5.792;2022-08-21T14:04:14;28.10;97.30
53310;DHT22;39197;53.200;5.792;2022-08-21T14:06:41;27.60;97.90
53310;DHT22;39197;53.200;5.792;2022-08-21T14:09:34;27.30;98.50
53310;DHT22;39197;53.200;5.792;2022-08-21T14:12:33;27.20;98.80
53310;DHT22;39197;53.200;5.792;2022-08-21T14:15:03;27.30;99.00
53310;DHT22;39197;53.200;5.792;2022-08-21T14:17:38;26.80;99.80
53310;DHT22;39197;53.200;5.792;2022-08-21T14:20:12;26.40;99.90
53310;DHT22;39197;53.200;5.792;2022-08-21T14:27:53;25.90;99.90
53310;DHT22;39197;53.200;5.792;2022-08-21T14:30:20;26.10;99.90
53310;DHT22;39197;53.200;5.792;2022-08-21T14:32:47;25.90;99.90
53310;DHT22;39197;53.200;5.792;2022-08-21T14:35:13;26.10;99.90
53310;DHT22;39197;53.200;5.792;2022-08-21T14:37:43;26.00;99.90
53310;DHT22;39197;53.200;5.792;2022-08-21T14:40:09;25.60;99.90
53310;DHT22;39197;53.200;5.792;2022-08-21T14:42:35;25.70;99.90
53310;DHT22;39197;53.200;5.792;2022-08-21T14:45:08;26.00;99.90
53310;DHT22;39197;53.200;5.792;2022-08-21T14:47:36;26.30;99.90
53310;DHT22;39197;53.200;5.792;2022-08-21T14:50:03;26.50;99.90
53310;DHT22;39197;53.200;5.792;2022-08-21T14:52:28;26.60;99.90
53310;DHT22;39197;53.200;5.792;2022-08-21T14:54:54;26.80;99.90
53310;DHT22;39197;53.200;5.792;2022-08-21T14:57:20;26.90;99.90
53310;DHT22;39197;53.200;5.792;2022-08-21T14:59:45;27.00;99.90
53310;DHT22;39197;53.200;5.792;2022-08-21T15:02:11;27.20;99.90
53310;DHT22;39197;53.200;5.792;2022-08-21T15:04:37;26.70;99.80
53310;DHT22;39197;53.200;5.792;2022-08-21T15:07:03;26.70;99.90
53310;DHT22;39197;53.200;5.792;2022-08-21T15:09:29;26.40;99.90
53310;DHT22;39197;53.200;5.792;2022-08-21T15:11:57;26.30;99.70
53310;DHT22;39197;53.200;5.792;2022-08-21T15:14:29;26.70;99.40
53310;DHT22;39197;53.200;5.792;2022-08-21T15:16:55;26.70;99.50
53310;DHT22;39197;53.200;5.792;2022-08-21T15:19:21;26.50;99.90
53310;DHT22;39197;53.200;5.792;2022-08-21T15:21:47;26.40;99.90
53310;DHT22;39197;53.200;5.792;2022-08-21T15:24:12;26.20;99.90
53310;DHT22;39197;53.200;5.792;2022-08-21T15:26:38;26.10;99.90
53310;DHT22;39197;53.200;5.792;2022-08-21T15:29:06;26.00;99.90
53310;DHT22;39197;53.200;5.792;2022-08-21T15:31:32;26.10;99.10
53310;DHT22;39197;53.200;5.792;2022-08-21T15:33:58;26.00;99.10
53310;DHT22;39197;53.200;5.792;2022-08-21T15:36:23;26.00;99.00
53310;DHT22;39197;53.200;5.792;2022-08-21T15:38:49;26.10;99.00
53310;DHT22;39197;53.200;5.792;2022-08-21T15:41:14;26.30;98.70
53310;DHT22;39197;53.200;5.792;2022-08-21T15:43:49;26.30;98.70
53310;DHT22;39197;53.200;5.792;2022-08-21T15:46:16;26.30;99.10
53310;DHT22;39197;53.200;5.792;2022-08-21T15:48:43;26.50;99.00
53310;DHT22;39197;53.200;5.792;2022-08-21T15:51:13;26.20;99.20
53310;DHT22;39197;53.200;5.792;2022-08-21T15:53:39;26.40;99.40
53310;DHT22;39197;53.200;5.792;2022-08-21T15:56:08;26.60;99.30
53310;DHT22;39197;53.200;5.792;2022-08-21T15:58:38;26.50;99.20
53310;DHT22;39197;53.200;5.792;2022-08-21T16:01:04;26.20;99.10
53310;DHT22;39197;53.200;5.792;2022-08-21T16:03:29;25.90;99.30
53310;DHT22;39197;53.200;5.792;2022-08-21T16:05:55;25.60;99.60
53310;DHT22;39197;53.200;5.792;2022-08-21T16:08:23;25.50;99.80
53310;DHT22;39197;53.200;5.792;2022-08-21T16:10:49;25.10;99.90
53310;DHT22;39197;53.200;5.792;2022-08-21T16:13:26;25.10;99.90
53310;DHT22;39197;53.200;5.792;2022-08-21T16:15:53;25.20;99.80
53310;DHT22;39197;53.200;5.792;2022-08-21T16:18:19;25.10;99.80
53310;DHT22;39197;53.200;5.792;2022-08-21T16:20:46;24.80;99.90
53310;DHT22;39197;53.200;5.792;2022-08-21T16:23:11;24.80;99.90
53310;DHT22;39197;53.200;5.792;2022-08-21T16:25:38;24.50;99.90
53310;DHT22;39197;53.200;5.792;2022-08-21T16:28:07;24.20;99.90
53310;DHT22;39197;53.200;5.792;2022-08-21T16:30:33;24.20;99.90
53310;DHT22;39197;53.200;5.792;2022-08-21T16:33:00;24.10;99.90
53310;DHT22;39197;53.200;5.792;2022-08-21T16:35:27;24.20;99.90
53310;DHT22;39197;53.200;5.792;2022-08-21T16:37:52;24.20;99.90
53310;DHT22;39197;53.200;5.792;2022-08-21T16:40:18;24.10;99.90
53310;DHT22;39197;53.200;5.792;2022-08-21T16:42:44;24.20;99.90
53310;DHT22;39197;53.200;5.792;2022-08-21T16:45:15;24.20;99.90